createdAt,value
2023-01-04T00:01:15.738Z,99232.06
2023-01-04T00:03:49.035Z,99226.28
2023-01-04T00:06:22.727Z,99218.03
2023-01-04T00:08:56.050Z,99215.50
2023-01-04T00:11:30.445Z,99216.59
2023-01-04T00:14:03.521Z,99220.13
2023-01-04T00:16:36.610Z,99224.44
2023-01-04T00:19:12.179Z,99228.03
2023-01-04T00:21:45.314Z,99236.00
2023-01-04T00:24:18.423Z,99235.47
2023-01-04T00:26:52.802Z,99227.03
2023-01-04T00:29:25.920Z,99215.50
2023-01-04T00:31:58.930Z,99210.47
2023-01-04T00:34:31.954Z,99188.22
2023-01-04T00:37:04.994Z,99184.25
2023-01-04T00:39:38.015Z,99169.72
2023-01-04T00:42:12.414Z,99168.81
2023-01-04T00:44:45.466Z,99164.56
2023-01-04T00:47:18.583Z,99159.31
2023-01-04T00:49:51.568Z,99166.00
2023-01-04T00:52:24.575Z,99166.00
2023-01-04T00:54:57.612Z,99159.50
2023-01-04T00:57:32.033Z,99155.91
2023-01-04T01:00:06.887Z,99158.25
2023-01-04T01:02:40.158Z,99150.94
2023-01-04T01:05:13.581Z,99154.00
2023-01-04T01:07:46.653Z,99151.34
2023-01-04T01:10:19.872Z,99148.28
2023-01-04T01:12:54.260Z,99158.69
2023-01-04T01:15:27.350Z,99163.94
2023-01-04T01:18:00.390Z,99153.13
2023-01-04T01:20:33.452Z,99152.78
2023-01-04T01:23:06.675Z,99165.41
2023-01-04T01:25:39.827Z,99157.00
2023-01-04T01:28:14.209Z,99159.91
2023-01-04T01:30:47.327Z,99169.41
2023-01-04T01:33:20.412Z,99174.44
2023-01-04T01:35:53.453Z,99163.84
2023-01-04T01:38:26.524Z,99167.09
2023-01-04T01:40:59.614Z,99161.88
2023-01-04T01:43:56.338Z,99167.63
2023-01-04T01:46:33.086Z,99160.31
2023-01-04T01:49:12.479Z,99174.28
2023-01-04T01:51:46.054Z,99172.69
2023-01-04T01:54:26.755Z,99183.81
2023-01-04T01:57:03.620Z,99180.06
2023-01-04T01:59:41.984Z,99182.75
2023-01-04T02:02:15.381Z,99174.63
2023-01-04T02:04:52.164Z,99175.53
2023-01-04T02:07:28.043Z,99169.03
2023-01-04T02:10:01.943Z,99171.94
2023-01-04T02:12:35.040Z,99167.63
2023-01-04T02:15:10.711Z,99155.75
2023-01-04T02:17:50.200Z,99154.88
2023-01-04T02:20:34.925Z,99153.25
2023-01-04T02:24:01.228Z,99152.88
2023-01-04T02:27:13.080Z,99143.88
2023-01-04T02:30:26.690Z,99142.28
2023-01-04T02:33:15.093Z,99150.03
2023-01-04T02:36:00.466Z,99147.69
2023-01-04T02:38:47.968Z,99142.66
2023-01-04T02:41:29.525Z,99148.25
2023-01-04T02:44:29.728Z,99138.88
2023-01-04T02:47:07.642Z,99137.44
2023-01-04T02:50:04.581Z,99126.66
2023-01-04T02:52:38.555Z,99124.13
2023-01-04T02:55:11.629Z,99128.81
2023-01-04T02:57:55.707Z,99124.91
2023-01-04T03:01:03.121Z,99132.47
2023-01-04T03:04:06.578Z,99121.31
2023-01-04T03:06:51.755Z,99126.16
2023-01-04T03:09:31.227Z,99122.91
2023-01-04T03:12:26.989Z,99112.66
2023-01-04T03:15:09.749Z,99114.09
2023-01-04T03:17:48.644Z,99104.78
2023-01-04T03:20:24.193Z,99103.00
2023-01-04T03:23:22.072Z,99106.53
2023-01-04T03:26:17.644Z,99108.34
2023-01-04T03:29:09.128Z,99110.47
2023-01-04T03:32:04.280Z,99091.78
2023-01-04T03:34:54.844Z,99087.47
2023-01-04T03:37:37.222Z,99083.69
2023-01-04T03:40:42.052Z,99089.66
2023-01-04T03:43:37.024Z,99067.94
2023-01-04T03:46:34.629Z,99064.53
2023-01-04T03:49:14.763Z,99052.50
2023-01-04T03:51:49.195Z,99050.81
2023-01-04T03:54:27.087Z,99043.63
2023-01-04T03:57:02.523Z,99051.72
2023-01-04T03:59:40.812Z,99053.69
2023-01-04T04:02:19.179Z,99058.31
2023-01-04T04:05:10.335Z,99060.28
2023-01-04T04:08:01.338Z,99060.13
2023-01-04T04:10:34.432Z,99058.66
2023-01-04T04:13:08.849Z,99059.06
2023-01-04T04:15:42.006Z,99067.16
2023-01-04T04:18:15.353Z,99069.53
2023-01-04T04:20:48.383Z,99060.19
2023-01-04T04:23:21.439Z,99060.53
2023-01-04T04:25:54.488Z,99054.81
2023-01-04T04:28:28.997Z,99052.66
2023-01-04T04:31:02.137Z,99050.31
2023-01-04T04:33:35.413Z,99054.09
2023-01-04T04:36:09.744Z,99050.50
2023-01-04T04:38:42.793Z,99041.34
2023-01-04T04:41:34.759Z,99036.50
2023-01-04T04:44:11.401Z,99035.06
2023-01-04T04:46:45.409Z,99029.84
2023-01-04T04:49:19.579Z,99027.34
2023-01-04T04:51:52.637Z,99032.19
2023-01-04T04:54:25.767Z,99030.53
2023-01-04T04:56:58.930Z,99035.00
2023-01-04T04:59:33.620Z,99039.66
2023-01-04T05:02:06.849Z,99041.09
2023-01-04T05:04:40.100Z,99042.88
2023-01-04T05:07:13.123Z,99043.56
2023-01-04T05:09:46.151Z,99034.78
2023-01-04T05:12:37.200Z,99042.56
2023-01-04T05:15:12.311Z,99047.63
2023-01-04T05:17:45.347Z,99033.97
2023-01-04T05:20:18.531Z,99033.59
2023-01-04T05:22:51.640Z,99018.88
2023-01-04T05:25:24.876Z,99027.69
2023-01-04T05:27:58.150Z,99017.03
2023-01-04T05:30:50.202Z,99017.56
2023-01-04T05:33:25.420Z,99022.84
2023-01-04T05:36:01.415Z,99018.50
2023-01-04T05:38:35.008Z,99017.06
2023-01-04T05:41:28.237Z,99020.28
2023-01-04T05:44:01.297Z,99019.88
2023-01-04T05:46:35.806Z,99022.53
2023-01-04T05:49:08.844Z,99014.44
2023-01-04T05:51:41.885Z,99010.41
2023-01-04T05:54:20.941Z,99010.06
2023-01-04T05:56:54.494Z,99010.28
2023-01-04T05:59:27.553Z,99007.22
2023-01-04T06:02:02.066Z,99004.72
2023-01-04T06:04:35.268Z,99000.91
2023-01-04T06:07:08.300Z,99008.59
2023-01-04T06:09:41.913Z,99007.16
2023-01-04T06:12:15.325Z,99012.53
2023-01-04T06:14:48.404Z,99019.72
2023-01-04T06:17:22.800Z,99010.34
2023-01-04T06:19:55.872Z,99016.47
2023-01-04T06:22:29.757Z,99021.16
2023-01-04T06:25:02.882Z,98994.44
2023-01-04T06:27:36.030Z,98996.72
2023-01-04T06:30:10.471Z,98999.19
2023-01-04T06:32:44.897Z,98998.75
2023-01-04T06:35:18.099Z,98996.22
2023-01-04T06:37:51.193Z,99002.97
2023-01-04T06:40:24.257Z,98996.59
2023-01-04T06:42:57.336Z,99001.09
2023-01-04T06:45:30.410Z,98991.63
2023-01-04T06:48:09.112Z,98995.88
2023-01-04T06:50:42.677Z,98992.00
2023-01-04T06:53:15.760Z,98980.16
2023-01-04T06:55:48.796Z,98973.66
2023-01-04T06:58:21.834Z,98982.66
2023-01-04T07:00:56.129Z,98987.47
2023-01-04T07:03:30.602Z,98982.78
2023-01-04T07:06:07.125Z,98979.47
2023-01-04T07:08:40.255Z,98984.28
2023-01-04T07:11:13.333Z,98979.56
2023-01-04T07:13:46.351Z,98969.81
2023-01-04T07:16:20.133Z,98979.47
2023-01-04T07:18:54.561Z,98990.13
2023-01-04T07:21:27.613Z,98987.78
2023-01-04T07:24:00.685Z,98991.03
2023-01-04T07:26:34.506Z,98973.72
2023-01-04T07:29:17.030Z,98994.78
2023-01-04T07:31:53.251Z,98978.31
2023-01-04T07:34:28.456Z,98988.63
2023-01-04T07:37:01.498Z,98997.41
2023-01-04T07:39:34.570Z,98988.00
2023-01-04T07:42:07.620Z,98994.59
2023-01-04T07:44:40.685Z,98990.44
2023-01-04T07:47:13.725Z,98991.06
2023-01-04T07:49:50.036Z,98990.50
2023-01-04T07:52:23.170Z,98991.97
2023-01-04T07:54:56.215Z,98986.44
2023-01-04T07:57:29.279Z,98987.75
2023-01-04T08:00:02.315Z,98979.69
2023-01-04T08:02:35.694Z,98977.09
2023-01-04T08:05:10.714Z,98968.53
2023-01-04T08:07:43.828Z,98967.41
2023-01-04T08:10:17.072Z,98964.78
2023-01-04T08:12:50.120Z,98968.63
2023-01-04T08:15:23.229Z,98969.09
2023-01-04T08:17:57.989Z,98971.94
2023-01-04T08:20:32.973Z,98962.91
2023-01-04T08:23:06.206Z,98963.19
2023-01-04T08:25:39.338Z,98955.84
2023-01-04T08:28:12.364Z,98957.63
2023-01-04T08:30:45.673Z,98966.25
2023-01-04T08:33:18.782Z,98954.13
2023-01-04T08:35:53.219Z,98957.41
2023-01-04T08:38:58.721Z,98945.97
2023-01-04T08:41:47.243Z,98939.31
2023-01-04T08:44:13.384Z,98945.16
2023-01-04T08:46:47.330Z,98932.53
2023-01-04T08:49:21.131Z,98930.34
2023-01-04T08:51:55.557Z,98933.38
2023-01-04T08:54:28.644Z,98931.47
2023-01-04T08:57:01.689Z,98931.03
2023-01-04T08:59:34.787Z,98920.56
2023-01-04T09:02:21.192Z,98919.72
2023-01-04T09:04:59.546Z,98918.56
2023-01-04T09:07:34.621Z,98922.47
2023-01-04T09:10:09.317Z,98909.91
2023-01-04T09:12:43.005Z,98901.31
2023-01-04T09:15:16.799Z,98880.81
2023-01-04T09:18:29.248Z,98889.63
2023-01-04T09:20:44.139Z,98894.22
2023-01-04T09:23:18.560Z,98888.22
2023-01-04T09:25:51.969Z,98897.06
2023-01-04T09:28:25.017Z,98901.28
2023-01-04T09:30:58.152Z,98895.41
2023-01-04T09:33:55.741Z,98882.78
2023-01-04T09:36:25.180Z,98887.06
2023-01-04T09:38:59.628Z,98888.84
2023-01-04T09:41:47.444Z,98888.97
2023-01-04T09:47:38.594Z,98882.59
2023-01-04T09:50:18.036Z,98874.00
2023-01-04T09:53:04.194Z,98883.06
2023-01-04T09:55:45.766Z,98876.66
2023-01-04T09:58:30.642Z,98873.41
2023-01-04T10:01:08.630Z,98865.81
2023-01-04T10:03:47.694Z,98861.03
2023-01-04T10:06:20.843Z,98864.28
2023-01-04T10:09:03.639Z,98858.22
2023-01-04T10:11:59.660Z,98853.44
2023-01-04T10:14:59.320Z,98855.22
2023-01-04T10:21:32.937Z,98844.44
2023-01-04T10:24:30.032Z,98841.78
2023-01-04T10:27:09.372Z,98830.72
2023-01-04T10:29:58.019Z,98837.13
2023-01-04T10:32:39.412Z,98824.41
2023-01-04T10:35:20.988Z,98815.31
2023-01-04T10:37:59.478Z,98818.84
2023-01-04T10:40:36.965Z,98811.19
2023-01-04T10:43:22.388Z,98816.88
2023-01-04T10:46:02.128Z,98805.66
2023-01-04T10:48:42.602Z,98806.03
2023-01-04T10:51:20.610Z,98791.75
2023-01-04T10:53:58.360Z,98779.84
2023-01-04T10:56:37.773Z,98778.41
2023-01-04T10:59:18.239Z,98771.19
2023-01-04T11:01:56.808Z,98771.75
2023-01-04T11:04:35.259Z,98777.81
2023-01-04T11:07:14.298Z,98777.47
2023-01-04T11:09:53.645Z,98758.47
2023-01-04T11:12:28.061Z,98762.72
2023-01-04T11:15:02.647Z,98753.34
2023-01-04T11:17:37.150Z,98759.88
2023-01-04T11:20:11.343Z,98765.00
2023-01-04T11:22:54.159Z,98749.72
2023-01-04T11:25:36.824Z,98755.75
2023-01-04T11:28:18.178Z,98738.41
2023-01-04T11:30:59.759Z,98732.44
2023-01-04T11:33:52.566Z,98725.97
2023-01-04T11:36:39.518Z,98723.91
2023-01-04T11:39:21.824Z,98721.66
2023-01-04T11:42:03.307Z,98703.94
2023-01-04T11:44:37.625Z,98700.47
2023-01-04T11:47:20.572Z,98704.41
2023-01-04T11:49:53.751Z,98697.56
2023-01-04T11:52:32.156Z,98699.56
2023-01-04T11:55:21.563Z,98704.03
2023-01-04T11:58:08.529Z,98701.72
2023-01-04T12:00:52.645Z,98698.19
2023-01-04T12:03:29.987Z,98708.28
2023-01-04T12:06:04.907Z,98695.53
2023-01-04T12:08:38.515Z,98704.78
2023-01-04T12:11:23.933Z,98695.22
2023-01-04T12:13:58.994Z,98698.16
2023-01-04T12:16:46.773Z,98692.03
2023-01-04T12:19:22.657Z,98686.16
2023-01-04T12:21:58.726Z,98695.59
2023-01-04T12:24:34.434Z,98680.31
2023-01-04T12:27:15.465Z,98694.69
2023-01-04T12:29:58.836Z,98686.91
2023-01-04T12:32:46.193Z,98686.53
2023-01-04T12:36:06.672Z,98682.78
2023-01-04T12:39:22.862Z,98690.31
2023-01-04T12:42:19.654Z,98689.59
2023-01-04T12:45:18.212Z,98677.16
2023-01-04T12:48:12.338Z,98677.38
2023-01-04T12:51:32.884Z,98663.41
2023-01-04T12:54:24.168Z,98664.88
2023-01-04T12:57:29.474Z,98657.38
2023-01-04T13:00:08.188Z,98649.41
2023-01-04T13:02:48.257Z,98639.41
2023-01-04T13:08:33.313Z,98636.78
2023-01-04T13:11:08.596Z,98642.19
2023-01-04T13:13:50.498Z,98630.56
2023-01-04T13:16:33.459Z,98625.00
2023-01-04T13:19:13.697Z,98625.22
2023-01-04T13:21:48.441Z,98630.78
2023-01-04T13:24:28.453Z,98624.56
2023-01-04T13:27:10.361Z,98619.78
2023-01-04T13:29:43.820Z,98618.09
2023-01-04T13:32:24.053Z,98611.22
2023-01-04T13:35:03.713Z,98604.34
2023-01-04T13:37:43.941Z,98601.63
2023-01-04T13:40:25.954Z,98597.19
2023-01-04T13:43:18.599Z,98595.19
2023-01-04T13:46:11.732Z,98597.41
2023-01-04T13:48:48.370Z,98600.09
2023-01-04T13:51:30.604Z,98587.31
2023-01-04T13:54:20.521Z,98590.41
2023-01-04T13:57:09.667Z,98589.41
2023-01-04T13:59:42.776Z,98596.72
2023-01-04T14:02:22.136Z,98584.28
2023-01-04T14:04:55.696Z,98587.19
2023-01-04T14:07:29.281Z,98588.47
2023-01-04T14:10:02.456Z,98586.72
2023-01-04T14:12:36.904Z,98571.84
2023-01-04T14:15:21.811Z,98572.25
2023-01-04T14:17:56.834Z,98560.69
2023-01-04T14:20:37.978Z,98571.78
2023-01-04T14:23:28.356Z,98574.50
2023-01-04T14:26:01.530Z,98575.03
2023-01-04T14:28:46.924Z,98569.34
2023-01-04T14:31:36.983Z,98565.81
2023-01-04T14:34:15.587Z,98570.53
2023-01-04T14:36:48.793Z,98568.88
2023-01-04T14:39:26.968Z,98573.16
2023-01-04T14:42:01.474Z,98587.97
2023-01-04T14:44:36.036Z,98572.41
2023-01-04T14:47:12.889Z,98571.13
2023-01-04T14:49:46.040Z,98561.31
2023-01-04T14:52:24.168Z,98567.25
2023-01-04T14:54:57.642Z,98567.66
2023-01-04T14:57:30.704Z,98550.44
2023-01-04T15:00:06.226Z,98574.25
2023-01-04T15:02:39.613Z,98572.88
2023-01-04T15:05:12.930Z,98560.09
2023-01-04T15:07:46.155Z,98557.22
2023-01-04T15:10:24.431Z,98551.63
2023-01-04T15:13:00.514Z,98556.47
2023-01-04T15:15:35.050Z,98549.25
2023-01-04T15:18:08.379Z,98550.44
2023-01-04T15:20:41.797Z,98540.41
2023-01-04T15:23:14.900Z,98548.09
2023-01-04T15:25:48.217Z,98542.75
2023-01-04T15:28:24.144Z,98537.84
2023-01-04T15:30:59.643Z,98528.63
2023-01-04T15:33:32.829Z,98527.63
2023-01-04T15:36:10.554Z,98520.59
2023-01-04T15:38:43.975Z,98521.75
2023-01-04T15:41:33.352Z,98520.28
2023-01-04T15:44:06.939Z,98524.50
2023-01-04T15:46:41.451Z,98528.00
2023-01-04T15:49:17.455Z,98518.78
2023-01-04T15:51:50.804Z,98529.63
2023-01-04T15:54:26.362Z,98537.38
2023-01-04T15:56:59.487Z,98537.38
2023-01-04T15:59:32.716Z,98542.44
2023-01-04T16:02:07.331Z,98533.75
2023-01-04T16:04:41.031Z,98530.91
2023-01-04T16:07:14.118Z,98528.06
2023-01-04T16:09:47.684Z,98528.94
2023-01-04T16:12:38.478Z,98519.31
2023-01-04T16:15:15.341Z,98520.94
2023-01-04T16:17:50.778Z,98508.47
2023-01-04T16:20:23.863Z,98522.56
2023-01-04T16:22:56.907Z,98519.00
2023-01-04T16:25:29.946Z,98514.06
2023-01-04T16:28:03.031Z,98516.91
2023-01-04T16:30:36.140Z,98518.50
2023-01-04T16:33:10.605Z,98516.56
2023-01-04T16:35:43.689Z,98520.00
2023-01-04T16:38:16.763Z,98519.19
2023-01-04T16:41:02.041Z,98515.88
2023-01-04T16:43:44.479Z,98532.41
2023-01-04T16:46:24.871Z,98520.59
2023-01-04T16:49:02.865Z,98520.88
2023-01-04T16:51:39.338Z,98498.06
2023-01-04T16:54:15.366Z,98502.88
2023-01-04T16:56:49.672Z,98503.66
2023-01-04T16:59:22.813Z,98499.44
2023-01-04T17:01:58.199Z,98498.34
2023-01-04T17:04:32.844Z,98502.69
2023-01-04T17:07:06.483Z,98501.28
2023-01-04T17:09:41.194Z,98494.03
2023-01-04T17:18:02.143Z,98497.09
2023-01-04T17:20:37.960Z,98493.22
2023-01-04T17:23:11.011Z,98481.63
2023-01-04T17:25:44.072Z,98481.47
2023-01-04T17:28:22.849Z,98479.66
2023-01-04T17:30:58.846Z,98484.00
2023-01-04T17:33:31.966Z,98480.06
2023-01-04T17:36:09.929Z,98470.53
2023-01-04T17:38:43.381Z,98480.84
2023-01-04T17:41:18.603Z,98473.50
2023-01-04T17:43:53.752Z,98472.91
2023-01-04T17:46:28.161Z,98463.34
2023-01-04T17:51:58.954Z,98453.19
2023-01-04T17:54:32.066Z,98457.25
2023-01-04T17:57:05.176Z,98454.28
2023-01-04T17:59:38.353Z,98459.97
2023-01-04T18:02:11.956Z,98453.50
2023-01-04T18:04:45.116Z,98450.38
2023-01-04T18:07:24.729Z,98456.44
2023-01-04T18:09:57.854Z,98453.50
2023-01-04T18:12:31.632Z,98447.09
2023-01-04T18:15:06.504Z,98457.72
2023-01-04T18:17:39.703Z,98460.78
2023-01-04T18:20:24.095Z,98451.94
2023-01-04T18:22:59.274Z,98461.06
2023-01-04T18:25:34.515Z,98440.13
2023-01-04T18:28:07.640Z,98444.47
2023-01-04T18:30:40.834Z,98443.25
2023-01-04T18:33:13.951Z,98434.09
2023-01-04T18:35:47.051Z,98436.34
2023-01-04T18:38:21.521Z,98428.78
2023-01-04T18:40:54.607Z,98435.72
2023-01-04T18:43:27.693Z,98423.28
2023-01-04T18:46:00.905Z,98426.19
2023-01-04T18:48:34.011Z,98426.31
2023-01-04T18:51:09.414Z,98424.94
2023-01-04T18:53:44.145Z,98426.75
2023-01-04T18:56:19.305Z,98421.81
2023-01-04T18:58:53.246Z,98422.31
2023-01-04T19:01:29.591Z,98434.31
2023-01-04T19:04:04.774Z,98425.75
2023-01-04T19:06:37.904Z,98431.19
2023-01-04T19:09:12.319Z,98431.69
2023-01-04T19:11:45.675Z,98419.75
2023-01-04T19:14:19.180Z,98421.13
2023-01-04T19:16:53.102Z,98430.56
2023-01-04T19:19:26.435Z,98429.88
2023-01-04T19:21:59.468Z,98426.53
2023-01-04T19:24:33.882Z,98431.47
2023-01-04T19:27:07.685Z,98412.97
2023-01-04T19:29:40.835Z,98424.16
2023-01-04T19:32:13.956Z,98417.59
2023-01-04T19:34:47.015Z,98429.66
2023-01-04T19:37:20.150Z,98430.97
2023-01-04T19:39:54.597Z,98428.09
2023-01-04T19:42:27.736Z,98435.78
2023-01-04T19:45:00.801Z,98443.56
2023-01-04T19:47:33.878Z,98428.28
2023-01-04T19:50:08.419Z,98441.00
2023-01-04T19:52:41.450Z,98440.22
2023-01-04T19:55:16.202Z,98430.34
2023-01-04T19:57:49.263Z,98445.31
2023-01-04T20:00:22.647Z,98446.41
2023-01-04T20:02:55.941Z,98440.69
2023-01-04T20:05:29.097Z,98442.56
2023-01-04T20:08:02.110Z,98443.16
2023-01-04T20:10:36.634Z,98445.44
2023-01-04T20:13:09.824Z,98445.31
2023-01-04T20:15:42.874Z,98452.50
2023-01-04T20:18:16.086Z,98451.69
2023-01-04T20:20:49.360Z,98454.69
2023-01-04T20:23:22.884Z,98458.22
2023-01-04T20:25:57.299Z,98451.13
2023-01-04T20:28:30.349Z,98461.19
2023-01-04T20:31:05.489Z,98453.59
2023-01-04T20:33:38.772Z,98463.53
2023-01-04T20:36:15.651Z,98457.31
2023-01-04T20:38:50.209Z,98466.28
2023-01-04T20:41:25.846Z,98469.75
2023-01-04T20:43:58.800Z,98465.31
2023-01-04T20:46:33.042Z,98459.03
2023-01-04T20:49:06.430Z,98447.69
2023-01-04T20:51:39.480Z,98440.00
2023-01-04T20:54:12.534Z,98446.88
2023-01-04T20:56:46.919Z,98442.06
2023-01-04T20:59:19.975Z,98428.41
2023-01-04T21:01:53.149Z,98432.44
2023-01-04T21:04:27.643Z,98415.72
2023-01-04T21:07:00.670Z,98420.94
2023-01-04T21:09:33.691Z,98401.56
2023-01-04T21:12:08.615Z,98417.88
2023-01-04T21:14:41.649Z,98426.84
2023-01-04T21:17:14.713Z,98420.16
2023-01-04T21:19:47.763Z,98427.91
2023-01-04T21:22:22.603Z,98417.28
2023-01-04T21:24:55.674Z,98421.41
2023-01-04T21:27:30.120Z,98435.69
2023-01-04T21:30:03.413Z,98434.81
2023-01-04T21:32:36.525Z,98427.91
2023-01-04T21:35:10.505Z,98426.16
2023-01-04T21:37:43.568Z,98421.53
2023-01-04T21:40:16.966Z,98433.44
2023-01-04T21:42:51.580Z,98428.69
2023-01-04T21:45:25.084Z,98433.81
2023-01-04T21:47:58.670Z,98429.91
2023-01-04T21:50:32.248Z,98436.97
2023-01-04T21:53:05.339Z,98426.75
2023-01-04T21:55:38.367Z,98418.28
2023-01-04T21:58:12.734Z,98426.94
2023-01-04T22:00:45.728Z,98419.94
2023-01-04T22:03:18.822Z,98427.75
2023-01-04T22:05:52.666Z,98415.44
2023-01-04T22:08:25.841Z,98416.81
2023-01-04T22:10:59.100Z,98414.75
2023-01-04T22:13:33.582Z,98411.09
2023-01-04T22:16:08.200Z,98416.31
2023-01-04T22:18:41.658Z,98409.44
2023-01-04T22:21:17.377Z,98422.81
2023-01-04T22:23:50.447Z,98426.25
2023-01-04T22:26:24.151Z,98411.97
2023-01-04T22:28:58.535Z,98402.13
2023-01-04T22:31:31.716Z,98393.06
2023-01-04T22:34:05.000Z,98388.38
2023-01-04T22:36:38.037Z,98399.97
2023-01-04T22:39:11.763Z,98398.69
2023-01-04T22:41:44.808Z,98394.00
2023-01-04T22:44:19.165Z,98382.06
2023-01-04T22:46:52.291Z,98403.53
2023-01-04T22:49:25.415Z,98389.63
2023-01-04T22:51:58.813Z,98381.16
2023-01-04T22:54:33.113Z,98380.28
2023-01-04T22:57:06.370Z,98370.53
2023-01-04T22:59:40.841Z,98375.09
2023-01-04T23:02:14.719Z,98375.66
2023-01-04T23:07:54.474Z,98385.22
2023-01-04T23:10:27.395Z,98375.16
2023-01-04T23:13:00.391Z,98375.66
2023-01-04T23:15:37.849Z,98360.81
2023-01-04T23:18:10.786Z,98352.56
2023-01-04T23:20:43.715Z,98353.50
2023-01-04T23:23:18.412Z,98351.16
2023-01-04T23:25:52.650Z,98354.81
2023-01-04T23:28:27.085Z,98354.13
2023-01-04T23:31:05.541Z,98342.19
2023-01-04T23:33:40.311Z,98341.50
2023-01-04T23:36:15.800Z,98329.47
2023-01-04T23:38:53.118Z,98331.97
2023-01-04T23:41:44.489Z,98324.00
2023-01-04T23:46:57.549Z,98299.38
2023-01-04T23:49:33.523Z,98310.00
2023-01-04T23:52:08.230Z,98300.56
2023-01-04T23:54:41.549Z,98303.00
2023-01-04T23:57:14.555Z,98298.38
2023-01-04T23:59:47.650Z,98301.13
